Terminal Aerodrome Forecast
Issued by NWS

Home | Current Version | Previous Version | Text Only | Print | Product List | Glossary On
Versions: 1 2 3 4 5 6 7 8 9 10 11 12 13 14
425
FTPA31 PHFO 060603 AAA
TAFSTU
TAF AMD
NSTU 060603Z 0606/0706 35006KT P6SM -SHRA SCT015 BKN035 BKN080
      TEMPO 0606/0610 3SM SHRA BR SCT005 BKN010
     FM070400 VRB04KT P6SM VCSH SCT020 BKN040 BKN100=

USA.gov is the U.S. government's official web portal to all federal, state and local government web resources and services.